createdAt,value
2023-03-29T00:00:47.500Z,6.3460
2023-03-29T00:01:48.326Z,6.3528
2023-03-29T00:02:49.287Z,6.2755
2023-03-29T00:03:50.249Z,6.1809
2023-03-29T00:04:51.160Z,6.1081
2023-03-29T00:05:51.920Z,6.0167
2023-03-29T00:06:52.734Z,5.8929
2023-03-29T00:07:53.523Z,5.8035
2023-03-29T00:08:54.346Z,5.7532
2023-03-29T00:09:55.110Z,5.6546
2023-03-29T00:10:55.948Z,5.5610
2023-03-29T00:11:56.756Z,5.5224
2023-03-29T00:12:57.605Z,5.5078
2023-03-29T00:13:58.418Z,5.6296
2023-03-29T00:14:59.200Z,5.8306
2023-03-29T00:15:59.972Z,5.8110
2023-03-29T00:17:01.105Z,5.8413
2023-03-29T00:18:02.030Z,5.9632
2023-03-29T00:19:02.916Z,5.9979
2023-03-29T00:20:03.646Z,6.0653
2023-03-29T00:21:04.647Z,6.1333
2023-03-29T00:22:05.562Z,6.1218
2023-03-29T00:23:06.367Z,6.1165
2023-03-29T00:24:07.178Z,6.1640
2023-03-29T00:25:07.976Z,6.2214
2023-03-29T00:26:08.802Z,6.2765
2023-03-29T00:27:09.623Z,6.2693
2023-03-29T00:28:10.420Z,6.1933
2023-03-29T00:29:11.226Z,6.0734
2023-03-29T00:30:12.051Z,6.1988
2023-03-29T00:31:12.865Z,6.1440
2023-03-29T00:32:13.801Z,6.2623
2023-03-29T00:33:14.681Z,6.3081
2023-03-29T00:34:15.492Z,6.4903
2023-03-29T00:35:16.319Z,6.7367
2023-03-29T00:36:17.148Z,6.5988
2023-03-29T00:37:18.007Z,6.4835
2023-03-29T00:38:18.775Z,6.5122
2023-03-29T00:39:19.605Z,6.4988
2023-03-29T00:40:20.405Z,6.5785
2023-03-29T00:41:21.242Z,6.4633
2023-03-29T00:42:22.061Z,6.3878
2023-03-29T00:43:22.878Z,6.3788
2023-03-29T00:44:23.725Z,6.6125
2023-03-29T00:45:24.507Z,6.7577
2023-03-29T00:46:25.376Z,6.9158
2023-03-29T00:47:26.404Z,6.8203
2023-03-29T00:48:27.234Z,6.7576
2023-03-29T00:49:27.992Z,6.7949
2023-03-29T00:50:28.827Z,6.7521
2023-03-29T00:51:29.545Z,6.6489
2023-03-29T00:52:30.314Z,6.6229
2023-03-29T00:53:31.127Z,6.5420
2023-03-29T00:54:31.932Z,6.4767
2023-03-29T00:55:32.718Z,6.4836
2023-03-29T00:56:33.515Z,6.5319
2023-03-29T00:57:34.304Z,6.6490
2023-03-29T00:58:35.118Z,6.7601
2023-03-29T00:59:35.949Z,6.7961
2023-03-29T01:00:36.751Z,6.6857
2023-03-29T01:01:37.534Z,6.6864
2023-03-29T01:02:38.421Z,6.7543
2023-03-29T01:03:39.540Z,6.9117
2023-03-29T01:04:40.556Z,6.9960
2023-03-29T01:05:41.383Z,7.0273
2023-03-29T01:06:42.182Z,7.1000
2023-03-29T01:07:43.090Z,7.1197
2023-03-29T01:08:43.860Z,7.0492
2023-03-29T01:09:44.678Z,7.0826
2023-03-29T01:10:45.362Z,7.0498
2023-03-29T01:11:46.190Z,7.0172
2023-03-29T01:12:46.999Z,6.9657
2023-03-29T01:13:47.801Z,6.9461
2023-03-29T01:14:48.806Z,6.8880
2023-03-29T01:15:49.640Z,6.8782
2023-03-29T01:16:50.479Z,6.8822
2023-03-29T01:17:51.318Z,6.8036
2023-03-29T01:18:52.102Z,6.7566
2023-03-29T01:19:52.904Z,6.7801
2023-03-29T01:20:53.674Z,6.9230
2023-03-29T01:21:54.484Z,6.9770
2023-03-29T01:22:55.344Z,7.0175
2023-03-29T01:23:56.184Z,7.1432
2023-03-29T01:24:56.963Z,7.1244
2023-03-29T01:25:57.812Z,7.0800
2023-03-29T01:26:58.636Z,6.9954
2023-03-29T01:27:59.451Z,6.9281
2023-03-29T01:29:00.286Z,6.9602
2023-03-29T01:30:01.143Z,6.9278
2023-03-29T01:31:02.163Z,6.8975
2023-03-29T01:32:03.604Z,6.8610
2023-03-29T01:33:04.863Z,6.9177
2023-03-29T01:34:05.671Z,6.9556
2023-03-29T01:35:06.486Z,6.9366
2023-03-29T01:36:07.223Z,6.9034
2023-03-29T01:37:08.037Z,6.8114
2023-03-29T01:38:08.784Z,6.7705
2023-03-29T01:39:09.564Z,6.6718
2023-03-29T01:40:10.390Z,6.6092
2023-03-29T01:41:11.200Z,6.7625
2023-03-29T01:42:12.033Z,6.9589
2023-03-29T01:43:13.061Z,6.9641
2023-03-29T01:44:14.190Z,6.9025
2023-03-29T01:45:15.309Z,6.9346
2023-03-29T01:46:16.240Z,6.9327
2023-03-29T01:47:17.140Z,6.9854
2023-03-29T01:48:17.972Z,7.0536
2023-03-29T01:49:18.759Z,6.9873
2023-03-29T01:50:19.610Z,7.0259
2023-03-29T01:51:20.421Z,6.9159
2023-03-29T01:52:21.271Z,6.8900
2023-03-29T01:53:22.087Z,6.8551
2023-03-29T01:54:22.954Z,6.8425
2023-03-29T01:55:23.750Z,6.7822
2023-03-29T01:56:24.552Z,6.8086
2023-03-29T01:57:25.498Z,6.9000
2023-03-29T01:58:26.343Z,6.8464
2023-03-29T01:59:27.049Z,6.7994
2023-03-29T02:00:27.873Z,6.7508
2023-03-29T02:01:28.834Z,6.8619
2023-03-29T02:02:29.811Z,6.7737
2023-03-29T02:03:30.755Z,6.6757
2023-03-29T02:04:32.186Z,6.6706
2023-03-29T02:05:32.997Z,6.6527
2023-03-29T02:06:33.800Z,6.7869
2023-03-29T02:07:34.608Z,6.7172
2023-03-29T02:08:35.468Z,6.6416
2023-03-29T02:09:36.269Z,6.6453
2023-03-29T02:10:37.075Z,6.6618
2023-03-29T02:11:37.876Z,6.6839
2023-03-29T02:12:38.708Z,6.5956
2023-03-29T02:13:39.528Z,6.6399
2023-03-29T02:14:40.498Z,6.7579
2023-03-29T02:15:41.340Z,6.7557
2023-03-29T02:16:42.189Z,6.6729
2023-03-29T02:17:43.046Z,6.5786
2023-03-29T02:18:44.010Z,6.4955
2023-03-29T02:19:44.769Z,6.5363
2023-03-29T02:20:45.490Z,6.5508
2023-03-29T02:21:46.326Z,6.4082
2023-03-29T02:22:47.121Z,6.3447
2023-03-29T02:23:47.966Z,6.2658
2023-03-29T02:24:48.785Z,6.2112
2023-03-29T02:25:49.633Z,6.2680
2023-03-29T02:26:50.606Z,6.5758
2023-03-29T02:27:51.410Z,6.6532
2023-03-29T02:28:52.230Z,6.6142
2023-03-29T02:29:53.059Z,6.5377
2023-03-29T02:30:53.903Z,6.3919
2023-03-29T02:31:54.693Z,6.4165
2023-03-29T02:32:55.596Z,6.4159
2023-03-29T02:33:56.478Z,6.4810
2023-03-29T02:34:57.316Z,6.4652
2023-03-29T02:35:58.068Z,6.5253
2023-03-29T02:36:58.826Z,6.6038
2023-03-29T02:37:59.533Z,6.5215
2023-03-29T02:39:00.355Z,6.4847
2023-03-29T02:40:01.206Z,6.5986
2023-03-29T02:41:02.213Z,6.5965
2023-03-29T02:42:03.607Z,6.7129
2023-03-29T02:43:04.450Z,6.7911
2023-03-29T02:44:05.249Z,6.6948
2023-03-29T02:45:06.079Z,6.5926
2023-03-29T02:46:06.940Z,6.4437
2023-03-29T02:47:07.801Z,6.3793
2023-03-29T02:48:08.615Z,6.2711
2023-03-29T02:49:09.555Z,6.2419
2023-03-29T02:50:10.355Z,6.1985
2023-03-29T02:51:11.208Z,6.2076
2023-03-29T02:52:12.042Z,6.1603
2023-03-29T02:53:12.874Z,6.1544
2023-03-29T02:54:13.697Z,6.2732
2023-03-29T02:55:14.470Z,6.5453
2023-03-29T02:56:15.280Z,6.5996
2023-03-29T02:57:16.254Z,6.4537
2023-03-29T02:58:17.134Z,6.3490
2023-03-29T02:59:17.951Z,6.2561
2023-03-29T03:00:18.785Z,6.1462
2023-03-29T03:01:19.632Z,6.2315
2023-03-29T03:02:20.522Z,6.1746
2023-03-29T03:03:21.470Z,6.1128
2023-03-29T03:04:22.382Z,6.1206
2023-03-29T03:05:23.188Z,6.1085
2023-03-29T03:06:24.052Z,6.1217
2023-03-29T03:07:25.950Z,6.0681
2023-03-29T03:08:26.770Z,6.0492
2023-03-29T03:09:27.566Z,6.2392
2023-03-29T03:10:28.465Z,6.3109
2023-03-29T03:11:29.198Z,6.2894
2023-03-29T03:12:30.053Z,6.3403
2023-03-29T03:13:30.774Z,6.4420
2023-03-29T03:14:31.570Z,6.5051
2023-03-29T03:15:32.274Z,6.4858
2023-03-29T03:16:33.118Z,6.4736
2023-03-29T03:17:33.885Z,6.4117
2023-03-29T03:18:34.702Z,6.2148
2023-03-29T03:19:35.519Z,6.1662
2023-03-29T03:20:36.373Z,6.1387
2023-03-29T03:21:37.159Z,6.0400
2023-03-29T03:22:37.959Z,6.0022
2023-03-29T03:23:38.768Z,6.0031
2023-03-29T03:24:39.485Z,6.0807
2023-03-29T03:25:40.297Z,6.1968
2023-03-29T03:26:41.120Z,6.2614
2023-03-29T03:27:41.951Z,6.2120
2023-03-29T03:28:42.749Z,6.1592
2023-03-29T03:29:43.587Z,6.2448
2023-03-29T03:30:44.613Z,6.4209
2023-03-29T03:31:45.550Z,6.8371
2023-03-29T03:32:46.403Z,7.1376
2023-03-29T03:33:47.257Z,7.0176
2023-03-29T03:34:48.120Z,6.9486
2023-03-29T03:35:48.918Z,6.8675
2023-03-29T03:36:49.787Z,6.8520
2023-03-29T03:37:50.606Z,6.7200
2023-03-29T03:38:51.471Z,6.5928
2023-03-29T03:39:52.241Z,6.5487
2023-03-29T03:40:53.044Z,6.6715
2023-03-29T03:41:53.949Z,6.7288
2023-03-29T03:42:54.709Z,6.7623
2023-03-29T03:43:55.907Z,6.6264
2023-03-29T03:44:56.998Z,6.5505
2023-03-29T03:45:57.996Z,6.5657
2023-03-29T03:46:58.902Z,6.5006
2023-03-29T03:47:59.727Z,6.5413
2023-03-29T03:49:00.585Z,6.4325
2023-03-29T03:50:01.425Z,6.3247
2023-03-29T03:51:02.327Z,6.1538
2023-03-29T03:52:03.785Z,6.1460
2023-03-29T03:53:04.546Z,6.1293
2023-03-29T03:54:05.391Z,6.1925
2023-03-29T03:55:06.170Z,6.1427
2023-03-29T03:56:06.943Z,6.0356
2023-03-29T03:57:07.729Z,6.1711
2023-03-29T03:58:08.558Z,6.2736
2023-03-29T03:59:09.372Z,6.2520
2023-03-29T04:00:10.152Z,6.1553
2023-03-29T04:01:10.928Z,6.3864
2023-03-29T04:02:11.763Z,6.6371
2023-03-29T04:03:12.668Z,6.7479
2023-03-29T04:04:13.912Z,6.7353
2023-03-29T04:05:14.607Z,6.5991
2023-03-29T04:06:15.415Z,6.4641
2023-03-29T04:07:16.217Z,6.5151
2023-03-29T04:08:17.010Z,6.7192
2023-03-29T04:09:17.785Z,6.6159
2023-03-29T04:10:18.654Z,6.5641
2023-03-29T04:11:19.483Z,6.5155
2023-03-29T04:12:20.288Z,6.3907
2023-03-29T04:13:21.151Z,6.7312
2023-03-29T04:14:21.948Z,6.9955
2023-03-29T04:15:22.712Z,6.9076
2023-03-29T04:16:23.495Z,6.8487
2023-03-29T04:17:24.533Z,6.7740
2023-03-29T04:18:25.465Z,6.9679
2023-03-29T04:19:26.504Z,6.8803
2023-03-29T04:20:27.330Z,6.8372
2023-03-29T04:21:28.122Z,6.8547
2023-03-29T04:22:28.903Z,6.8241
2023-03-29T04:23:29.723Z,6.8616
2023-03-29T04:24:30.590Z,6.9715
2023-03-29T04:25:31.361Z,6.8926
2023-03-29T04:26:32.156Z,6.9184
2023-03-29T04:27:32.994Z,6.8920
2023-03-29T04:28:33.812Z,7.2075
2023-03-29T04:29:34.616Z,7.2345
2023-03-29T04:30:35.407Z,7.2756
2023-03-29T04:31:36.257Z,7.2595
2023-03-29T04:32:37.062Z,7.1003
2023-03-29T04:33:37.800Z,7.1455
2023-03-29T04:34:38.553Z,7.1065
2023-03-29T04:35:39.315Z,7.1209
2023-03-29T04:36:40.106Z,7.1007
2023-03-29T04:37:40.921Z,7.0289
2023-03-29T04:38:46.106Z,6.9063
2023-03-29T04:39:44.464Z,6.8657
2023-03-29T04:40:45.272Z,7.0107
2023-03-29T04:41:45.974Z,6.9303
2023-03-29T04:42:46.793Z,6.8984
2023-03-29T04:43:47.567Z,6.9867
2023-03-29T04:44:48.418Z,7.0301
2023-03-29T04:45:49.317Z,7.0011
2023-03-29T04:46:50.240Z,7.1654
2023-03-29T04:47:51.150Z,7.1139
2023-03-29T04:48:51.988Z,6.9990
2023-03-29T04:49:52.812Z,6.8241
2023-03-29T04:50:53.672Z,6.8949
2023-03-29T04:51:54.496Z,7.0502
2023-03-29T04:52:55.319Z,7.4841
2023-03-29T04:53:56.106Z,7.5174
2023-03-29T04:54:56.909Z,7.5610
2023-03-29T04:55:57.664Z,7.7565
2023-03-29T04:56:58.560Z,7.9184
2023-03-29T04:57:59.324Z,7.9458
2023-03-29T04:59:00.184Z,7.9264
2023-03-29T05:00:00.932Z,7.9310
2023-03-29T05:01:02.074Z,7.9810
2023-03-29T05:02:03.967Z,7.9526
2023-03-29T05:03:04.851Z,7.8624
2023-03-29T05:04:05.745Z,7.8094
2023-03-29T05:05:06.507Z,7.8749
2023-03-29T05:06:07.559Z,7.8832
2023-03-29T05:07:08.545Z,7.8675
2023-03-29T05:08:09.421Z,7.9000
2023-03-29T05:09:10.139Z,7.8498
2023-03-29T05:10:10.997Z,7.8086
2023-03-29T05:11:11.888Z,7.9401
2023-03-29T05:12:12.749Z,8.0012
2023-03-29T05:13:13.530Z,7.9876
2023-03-29T05:14:14.311Z,7.9862
2023-03-29T05:15:15.183Z,7.9307
2023-03-29T05:16:16.087Z,7.8250
2023-03-29T05:17:16.916Z,7.6495
2023-03-29T05:18:17.762Z,7.7683
2023-03-29T05:19:18.972Z,7.9681
2023-03-29T05:20:20.004Z,7.9908
2023-03-29T05:21:20.709Z,7.9505
2023-03-29T05:22:21.502Z,7.9302
2023-03-29T05:23:22.452Z,8.0219
2023-03-29T05:24:23.263Z,7.8775
2023-03-29T05:25:24.043Z,7.8474
2023-03-29T05:26:24.844Z,7.8146
2023-03-29T05:27:25.667Z,7.7851
2023-03-29T05:28:26.438Z,7.7709
2023-03-29T05:29:27.222Z,7.8127
2023-03-29T05:30:28.025Z,7.8785
2023-03-29T05:31:28.891Z,7.8807
2023-03-29T05:32:29.628Z,7.8504
2023-03-29T05:33:30.414Z,7.9119
2023-03-29T05:34:31.188Z,7.9353
2023-03-29T05:35:32.039Z,8.0446
2023-03-29T05:36:32.850Z,8.0340
2023-03-29T05:37:33.640Z,7.9383
2023-03-29T05:38:34.497Z,7.6925
2023-03-29T05:39:37.557Z,7.6333
2023-03-29T05:40:36.394Z,7.6496
2023-03-29T05:41:37.186Z,7.8239
2023-03-29T05:42:38.022Z,7.9083
2023-03-29T05:43:38.814Z,7.8685
2023-03-29T05:44:39.548Z,7.9071
2023-03-29T05:45:40.691Z,7.9580
2023-03-29T05:46:41.489Z,7.8812
2023-03-29T05:47:42.314Z,7.8061
2023-03-29T05:48:43.041Z,7.8429
2023-03-29T05:49:43.849Z,7.7939
2023-03-29T05:50:46.260Z,7.7811
2023-03-29T05:51:45.118Z,7.8164
2023-03-29T05:52:45.988Z,7.8046
2023-03-29T05:53:46.765Z,7.8201
2023-03-29T05:54:47.594Z,7.7732
2023-03-29T05:55:49.459Z,7.7095
2023-03-29T05:56:50.342Z,7.6660
2023-03-29T05:57:51.129Z,7.7067
2023-03-29T05:58:53.726Z,7.6934
2023-03-29T05:59:53.700Z,7.6673
2023-03-29T06:00:54.505Z,7.7261
2023-03-29T06:01:55.345Z,7.6638
2023-03-29T06:03:01.373Z,7.6913
2023-03-29T06:03:56.441Z,7.6949
2023-03-29T06:04:57.445Z,7.6644
2023-03-29T06:05:58.316Z,7.7348
2023-03-29T06:06:59.090Z,7.7727
2023-03-29T06:08:00.157Z,7.6975
2023-03-29T06:09:01.087Z,7.7031
2023-03-29T06:10:01.871Z,7.6709
2023-03-29T06:11:04.461Z,7.6987
2023-03-29T06:12:04.293Z,7.8497
2023-03-29T06:13:05.169Z,7.9072
2023-03-29T06:14:05.980Z,7.9153
2023-03-29T06:15:06.779Z,8.1179
2023-03-29T06:16:07.582Z,8.0885
2023-03-29T06:17:08.443Z,8.0766
2023-03-29T06:18:09.284Z,8.0864
2023-03-29T06:19:10.042Z,8.1261
2023-03-29T06:20:10.842Z,8.2740
2023-03-29T06:21:12.779Z,8.4336
2023-03-29T06:22:14.923Z,8.5664
2023-03-29T06:23:15.815Z,8.5798
2023-03-29T06:24:16.765Z,8.6922
2023-03-29T06:25:17.599Z,8.6727
2023-03-29T06:26:18.489Z,8.6865
2023-03-29T06:27:19.256Z,8.6621
2023-03-29T06:28:20.032Z,8.7717
2023-03-29T06:29:20.819Z,8.7216
2023-03-29T06:30:21.585Z,8.7262
2023-03-29T06:31:22.422Z,8.6649
2023-03-29T06:32:23.305Z,8.6687
2023-03-29T06:33:24.179Z,8.6528
2023-03-29T06:34:24.991Z,8.6160
2023-03-29T06:35:25.766Z,8.7015
2023-03-29T06:36:26.532Z,8.7395
2023-03-29T06:37:27.454Z,8.7850
2023-03-29T06:38:28.371Z,8.8094
2023-03-29T06:39:29.294Z,8.8895
2023-03-29T06:40:30.060Z,8.8276
2023-03-29T06:41:30.854Z,8.8576
2023-03-29T06:42:31.705Z,8.8838
2023-03-29T06:43:32.489Z,8.8649
2023-03-29T06:44:33.288Z,8.9068
2023-03-29T06:45:34.682Z,8.9289
2023-03-29T06:46:35.495Z,9.0317
2023-03-29T06:47:36.328Z,9.0423
2023-03-29T06:48:37.131Z,9.0226
2023-03-29T06:49:37.933Z,8.9952
2023-03-29T06:50:38.721Z,9.0655
2023-03-29T06:51:39.485Z,9.0782
2023-03-29T06:52:40.333Z,9.0938
2023-03-29T06:53:41.140Z,9.0512
2023-03-29T06:54:41.877Z,8.9746
2023-03-29T06:55:42.547Z,9.0690
2023-03-29T06:56:43.340Z,9.1295
2023-03-29T06:57:44.041Z,9.1221
2023-03-29T06:58:44.885Z,9.1351
2023-03-29T06:59:45.670Z,9.2125
2023-03-29T07:00:46.435Z,9.2042
2023-03-29T07:01:47.251Z,9.2758
2023-03-29T07:02:48.055Z,9.2425
2023-03-29T07:03:48.849Z,9.2099
2023-03-29T07:04:49.673Z,9.2853
2023-03-29T07:05:50.450Z,9.3441
2023-03-29T07:06:51.249Z,9.3701
2023-03-29T07:07:51.876Z,9.3418
2023-03-29T07:08:52.733Z,9.3263
2023-03-29T07:09:53.477Z,9.3102
2023-03-29T07:10:54.258Z,8.9347
2023-03-29T07:11:54.963Z,8.5573
2023-03-29T07:12:56.733Z,8.3273
2023-03-29T07:13:57.543Z,8.2964
2023-03-29T07:14:58.306Z,8.2923
2023-03-29T07:15:59.136Z,8.1712
2023-03-29T07:17:00.054Z,8.0319
2023-03-29T07:18:00.863Z,7.9428
2023-03-29T07:19:01.680Z,7.8833
2023-03-29T07:20:02.491Z,7.7976
2023-03-29T07:21:03.284Z,7.8270
2023-03-29T07:22:04.157Z,7.9378
2023-03-29T07:23:04.980Z,8.0277
2023-03-29T07:24:05.709Z,8.1906
2023-03-29T07:25:06.482Z,8.3576
2023-03-29T07:26:07.214Z,8.4194
2023-03-29T07:27:07.982Z,8.5469
2023-03-29T07:28:08.739Z,8.4852
2023-03-29T07:29:09.547Z,8.4895
2023-03-29T07:30:10.308Z,8.5305
2023-03-29T07:31:11.191Z,8.5620
2023-03-29T07:32:12.400Z,8.3858
2023-03-29T07:33:13.332Z,8.3992
2023-03-29T07:34:14.417Z,8.4655
2023-03-29T07:35:15.204Z,8.3418
2023-03-29T07:36:16.003Z,8.4453
2023-03-29T07:37:16.897Z,8.4450
2023-03-29T07:38:17.678Z,8.4600
2023-03-29T07:39:18.510Z,8.4949
2023-03-29T07:40:19.262Z,8.5312
2023-03-29T07:41:20.058Z,8.5207
2023-03-29T07:42:20.857Z,8.5870
2023-03-29T07:43:21.624Z,8.5817
2023-03-29T07:44:22.434Z,8.9300
2023-03-29T07:45:26.743Z,8.8356
2023-03-29T07:46:25.494Z,8.6994
2023-03-29T07:47:26.254Z,8.8509
2023-03-29T07:49:27.467Z,9.0511
2023-03-29T07:50:28.186Z,9.1746
2023-03-29T07:51:28.949Z,9.0844
2023-03-29T07:52:29.814Z,9.1233
2023-03-29T07:53:31.586Z,9.2107
2023-03-29T07:54:32.394Z,9.2440
2023-03-29T07:55:33.165Z,9.0705
2023-03-29T07:56:33.976Z,9.1401
2023-03-29T07:57:34.743Z,9.1539
2023-03-29T07:58:35.537Z,9.2905
2023-03-29T07:59:36.292Z,9.4288
2023-03-29T08:00:37.075Z,9.5278
2023-03-29T08:01:37.835Z,9.6003
2023-03-29T08:02:38.608Z,9.5669
2023-03-29T08:03:39.359Z,9.5490
2023-03-29T08:04:40.201Z,9.4422
2023-03-29T08:05:41.976Z,9.5143
2023-03-29T08:06:40.972Z,9.5501
2023-03-29T08:07:41.695Z,9.4047
2023-03-29T08:08:42.373Z,9.4898
2023-03-29T08:09:43.221Z,9.5093
2023-03-29T08:10:43.987Z,9.5404
2023-03-29T08:11:44.718Z,9.6167
2023-03-29T08:12:45.511Z,9.6558
2023-03-29T08:13:46.274Z,9.6598
2023-03-29T08:14:46.997Z,9.2507
2023-03-29T08:15:47.799Z,9.2122
2023-03-29T08:16:48.611Z,9.1042
2023-03-29T08:17:49.413Z,9.0814
2023-03-29T08:18:50.298Z,9.1253
2023-03-29T08:19:52.219Z,9.1764
2023-03-29T08:20:51.100Z,9.1325
2023-03-29T08:21:51.832Z,9.0423
2023-03-29T08:22:52.582Z,9.1253
2023-03-29T08:23:53.240Z,9.2589
2023-03-29T08:24:54.016Z,9.4877
2023-03-29T08:25:54.821Z,9.3848
2023-03-29T08:26:55.641Z,9.1109
2023-03-29T08:27:56.598Z,9.0314
2023-03-29T08:28:57.363Z,9.0275
2023-03-29T08:29:58.106Z,9.0565
2023-03-29T08:30:58.950Z,9.2186
2023-03-29T08:31:59.727Z,9.3794
2023-03-29T08:33:00.598Z,9.5495
2023-03-29T08:34:01.366Z,9.7007
2023-03-29T08:35:02.161Z,9.8393
2023-03-29T08:36:02.969Z,9.8307
2023-03-29T08:37:03.765Z,9.8822
2023-03-29T08:38:04.555Z,9.9166
2023-03-29T08:39:05.329Z,9.9787
2023-03-29T08:40:06.123Z,9.9846
2023-03-29T08:41:06.781Z,9.8882
2023-03-29T08:42:07.589Z,9.9628
2023-03-29T08:43:08.389Z,10.1119
2023-03-29T08:44:09.171Z,10.4777
2023-03-29T08:45:09.924Z,10.7145
2023-03-29T08:46:10.702Z,10.6000
2023-03-29T08:47:11.486Z,10.7622
2023-03-29T08:48:12.273Z,10.8710
2023-03-29T08:49:13.060Z,10.7495
2023-03-29T08:50:13.923Z,10.8716
2023-03-29T08:51:14.638Z,10.8747
2023-03-29T08:52:15.396Z,10.7787
2023-03-29T08:53:16.206Z,10.5346
2023-03-29T08:54:16.994Z,10.7768
2023-03-29T08:55:17.784Z,11.0268
2023-03-29T08:56:18.561Z,11.1651
2023-03-29T08:57:19.351Z,11.1593
2023-03-29T08:58:20.274Z,11.3205
2023-03-29T08:59:21.089Z,11.3860
2023-03-29T09:00:21.827Z,11.5715
2023-03-29T09:01:22.706Z,11.6565
2023-03-29T09:02:23.719Z,11.6243
2023-03-29T09:03:25.015Z,11.6185
2023-03-29T09:04:25.948Z,11.7850
2023-03-29T09:05:26.782Z,11.7659
2023-03-29T09:06:27.668Z,11.8251
2023-03-29T09:07:28.390Z,11.9271
2023-03-29T09:08:29.136Z,11.8715
2023-03-29T09:09:29.942Z,11.9850
2023-03-29T09:10:30.692Z,11.8046
2023-03-29T09:11:31.432Z,11.8813
2023-03-29T09:12:32.087Z,12.0000
2023-03-29T09:13:32.943Z,11.9359
2023-03-29T09:14:33.767Z,11.8365
2023-03-29T09:15:34.570Z,11.9889
2023-03-29T09:16:35.463Z,11.9285
2023-03-29T09:17:36.261Z,11.6429
2023-03-29T09:18:37.134Z,11.6263
2023-03-29T09:19:38.008Z,11.8487
2023-03-29T09:20:38.777Z,11.5413
2023-03-29T09:21:39.536Z,11.3357
2023-03-29T09:22:40.335Z,11.3677
2023-03-29T09:23:41.139Z,11.2812
2023-03-29T09:24:41.927Z,11.3358
2023-03-29T09:25:52.437Z,11.2729
2023-03-29T09:26:44.709Z,11.1381
2023-03-29T09:27:45.398Z,11.2824
2023-03-29T09:28:46.130Z,11.4583
2023-03-29T09:29:46.819Z,11.4308
2023-03-29T09:30:47.598Z,11.3329
2023-03-29T09:31:48.473Z,11.4007
2023-03-29T09:32:49.283Z,11.3482
2023-03-29T09:33:50.048Z,11.3673
2023-03-29T09:34:50.816Z,11.0545
2023-03-29T09:35:51.672Z,10.9031
2023-03-29T09:36:52.554Z,10.6310
2023-03-29T09:37:53.369Z,10.5908
2023-03-29T09:38:54.206Z,10.5328
2023-03-29T09:39:55.134Z,10.5717
2023-03-29T09:40:55.950Z,10.7064
2023-03-29T09:41:56.715Z,10.7355
2023-03-29T09:42:57.510Z,10.6400
2023-03-29T09:43:58.318Z,10.7387
2023-03-29T09:44:59.082Z,10.7991
2023-03-29T09:45:59.989Z,10.8628
2023-03-29T09:47:00.897Z,10.7141
2023-03-29T09:48:01.695Z,10.7600
2023-03-29T09:49:02.458Z,11.0340
2023-03-29T09:50:03.257Z,10.9918
2023-03-29T09:51:04.286Z,11.0513
2023-03-29T09:52:05.617Z,11.2975
2023-03-29T09:53:06.446Z,11.3610
2023-03-29T09:54:07.222Z,11.5067
2023-03-29T09:55:08.036Z,11.3796
2023-03-29T09:56:08.864Z,11.4541
2023-03-29T09:57:09.735Z,11.4418
2023-03-29T09:58:10.655Z,11.4868
2023-03-29T09:59:11.446Z,11.7235
2023-03-29T10:00:12.263Z,11.9813
2023-03-29T10:01:13.078Z,12.0062
2023-03-29T10:02:13.796Z,12.2981
2023-03-29T10:03:14.609Z,12.5044
2023-03-29T10:04:15.384Z,12.3652
2023-03-29T10:05:16.160Z,12.3215
2023-03-29T10:06:16.970Z,12.2602
2023-03-29T10:07:17.731Z,12.3319
2023-03-29T10:08:19.661Z,12.3135
2023-03-29T10:09:18.689Z,12.4854
2023-03-29T10:11:20.042Z,12.7260
2023-03-29T10:12:20.734Z,13.2790
2023-03-29T10:13:21.385Z,13.2948
2023-03-29T10:15:29.668Z,13.3040
2023-03-29T10:16:24.822Z,13.7758
2023-03-29T10:17:25.619Z,13.7021
2023-03-29T10:18:26.397Z,13.3042
2023-03-29T10:19:27.087Z,13.2430
2023-03-29T10:20:27.863Z,13.5310
2023-03-29T10:21:28.638Z,13.7728
2023-03-29T10:22:29.425Z,14.5133
2023-03-29T10:23:30.185Z,14.5708
2023-03-29T10:24:30.930Z,14.1670
2023-03-29T10:25:31.709Z,14.5206
2023-03-29T10:26:32.496Z,14.3733
2023-03-29T10:27:33.248Z,13.9429
2023-03-29T10:28:34.036Z,13.8030
2023-03-29T10:29:34.849Z,13.6611
2023-03-29T10:30:35.626Z,13.8664
2023-03-29T10:31:36.461Z,14.2357
2023-03-29T10:32:37.251Z,14.3403
2023-03-29T10:33:37.951Z,14.2120
2023-03-29T10:34:38.748Z,14.1488
2023-03-29T10:35:39.583Z,14.8576
2023-03-29T10:36:40.350Z,14.8785
2023-03-29T10:37:41.112Z,15.5745
2023-03-29T10:38:41.899Z,16.4605
2023-03-29T10:39:42.665Z,17.3604
2023-03-29T10:40:43.453Z,16.4845
2023-03-29T10:41:44.252Z,16.7577
2023-03-29T10:42:45.039Z,17.6340
2023-03-29T10:43:45.838Z,17.6019
2023-03-29T10:44:46.827Z,15.8649
2023-03-29T10:45:47.525Z,15.0607
2023-03-29T10:46:48.230Z,14.9873
2023-03-29T10:47:49.087Z,15.2779
2023-03-29T10:48:49.768Z,14.9129
2023-03-29T10:49:51.021Z,14.7344
2023-03-29T10:50:51.738Z,15.2427
2023-03-29T10:51:52.473Z,16.9723
2023-03-29T10:52:53.234Z,17.2195
2023-03-29T10:53:54.062Z,15.7449
2023-03-29T10:54:54.864Z,14.9909
2023-03-29T10:55:55.655Z,14.8644
2023-03-29T10:56:56.497Z,14.3336
2023-03-29T10:57:57.305Z,13.8142
2023-03-29T10:58:58.094Z,14.1719
2023-03-29T10:59:58.878Z,14.0928
2023-03-29T11:00:59.802Z,13.8544
2023-03-29T11:02:01.086Z,13.6630
2023-03-29T11:03:01.956Z,13.3706
2023-03-29T11:04:02.848Z,13.4385
2023-03-29T11:05:03.855Z,13.3558
2023-03-29T11:06:04.638Z,13.2111
2023-03-29T11:07:05.455Z,13.2532
2023-03-29T11:08:06.227Z,13.3325
2023-03-29T11:09:07.067Z,13.3357
2023-03-29T11:10:07.846Z,13.3297
2023-03-29T11:11:08.626Z,13.5265
2023-03-29T11:12:15.607Z,13.9569
2023-03-29T11:14:11.223Z,14.5446
2023-03-29T11:15:11.866Z,14.9150
2023-03-29T11:16:12.697Z,15.0224
2023-03-29T11:17:13.485Z,15.0248
2023-03-29T11:18:14.249Z,14.9777
2023-03-29T11:19:15.011Z,15.2568
2023-03-29T11:20:15.852Z,15.1417
2023-03-29T11:21:16.616Z,15.3007
2023-03-29T11:22:17.448Z,15.3813
2023-03-29T11:23:18.228Z,15.5522
2023-03-29T11:24:19.106Z,15.7323
2023-03-29T11:25:19.864Z,15.6993
2023-03-29T11:26:20.646Z,15.6892
2023-03-29T11:27:21.490Z,15.6659
2023-03-29T11:28:22.256Z,15.7448
2023-03-29T11:29:22.986Z,16.0132
2023-03-29T11:30:23.749Z,16.6345
2023-03-29T11:31:24.730Z,16.8332
2023-03-29T11:32:25.690Z,16.6074
2023-03-29T11:33:26.453Z,16.7085
2023-03-29T11:34:27.269Z,16.7645
2023-03-29T11:35:28.038Z,16.5073
2023-03-29T11:36:28.874Z,16.9516
2023-03-29T11:37:29.616Z,17.3776
2023-03-29T11:38:30.424Z,17.3414
2023-03-29T11:39:31.197Z,17.0762
2023-03-29T11:40:33.046Z,16.8687
2023-03-29T11:41:33.963Z,17.5936
2023-03-29T11:42:34.767Z,17.5160
2023-03-29T11:43:35.552Z,17.5310
2023-03-29T11:44:36.397Z,17.0645
2023-03-29T11:45:37.213Z,17.6568
2023-03-29T11:46:38.050Z,18.0188
2023-03-29T11:47:38.946Z,17.5511
2023-03-29T11:48:39.709Z,16.9004
2023-03-29T11:49:40.495Z,17.0689
2023-03-29T11:50:41.307Z,16.8266
2023-03-29T11:51:42.108Z,17.3646
2023-03-29T11:52:42.951Z,18.0518
2023-03-29T11:53:43.616Z,17.8951
2023-03-29T11:54:44.531Z,17.6698
2023-03-29T11:55:45.345Z,17.7073
2023-03-29T11:56:46.209Z,16.9621
2023-03-29T11:57:46.973Z,16.4827
2023-03-29T11:58:47.747Z,16.2246
2023-03-29T11:59:48.593Z,16.1346
2023-03-29T12:00:49.374Z,16.5535
2023-03-29T12:01:50.210Z,16.5567
2023-03-29T12:02:51.062Z,16.2519
2023-03-29T12:03:52.001Z,15.9597
2023-03-29T12:04:52.981Z,15.9203
2023-03-29T12:05:53.789Z,16.1941
2023-03-29T12:06:54.592Z,16.8999
2023-03-29T12:07:55.410Z,17.4404
2023-03-29T12:08:56.173Z,17.2272
2023-03-29T12:09:56.991Z,16.6788
2023-03-29T12:10:57.757Z,16.6369
2023-03-29T12:11:58.609Z,16.2737
2023-03-29T12:12:59.428Z,15.9505
2023-03-29T12:14:00.235Z,16.0318
2023-03-29T12:15:01.029Z,15.7899
2023-03-29T12:16:01.908Z,15.8280
2023-03-29T12:17:02.757Z,15.8322
2023-03-29T12:18:04.078Z,15.5724
2023-03-29T12:19:04.823Z,15.3814
2023-03-29T12:20:05.613Z,15.1522
2023-03-29T12:21:06.471Z,15.2161
2023-03-29T12:22:07.200Z,15.0723
2023-03-29T12:23:07.999Z,15.0253
2023-03-29T12:24:08.870Z,14.8053
2023-03-29T12:25:10.453Z,14.7099
2023-03-29T12:26:11.232Z,14.7652
2023-03-29T12:27:12.017Z,14.8085
2023-03-29T12:28:12.806Z,14.9138
2023-03-29T12:29:13.555Z,14.6656
2023-03-29T12:30:14.330Z,14.7630
2023-03-29T12:31:15.143Z,14.8641
2023-03-29T12:32:16.044Z,15.2346
2023-03-29T12:33:17.058Z,15.3327
2023-03-29T12:34:17.880Z,15.2753
2023-03-29T12:35:18.713Z,15.2996
2023-03-29T12:36:19.462Z,15.1829